DLH5KW ESSA-EDDF
Flight info
| Callsign | DLH5KW |
|---|---|
| Flight time | 1h 47m |
| Altitude | 36000 |
| Route | NOSLI N850 ABAMA DCT SONAL DCT POVEL DCT RIMET/N0436F310 T157 KOKEB/N0388F230 T157 KERAX KERAX5A |
| Aircraft | A321/M-SDE3FGHIRWY/LB1 |
Departure
| Time | 2026-05-07 11:06 |
|---|---|
| Airport | Stockholm-Arlanda Airport (ESSA) |
Arrival
| Time | 2026-05-07 12:53 |
|---|---|
| Airport | Frankfurt Main Airport (EDDF) |
| Time | Latitude | Longitude | Altitude | Speed | Heading |
|---|---|---|---|---|---|
| 2026-05-07 10:35 | 59.65135 | 17.92895 | 110 ft | 0 kts | 207° |
| 2026-05-07 10:54 | 59.65136 | 17.92895 | 112 ft | 1 kts | 207° |
| 2026-05-07 10:55 | 59.65156 | 17.92913 | 109 ft | 4 kts | 191° |
| 2026-05-07 10:55 | 59.65182 | 17.92914 | 109 ft | 4 kts | 158° |
| 2026-05-07 10:55 | 59.65199 | 17.92892 | 111 ft | 3 kts | 131° |
| 2026-05-07 10:55 | 59.65218 | 17.92856 | 112 ft | 4 kts | 145° |
| 2026-05-07 10:56 | 59.65241 | 17.92829 | 109 ft | 4 kts | 155° |
| 2026-05-07 10:56 | 59.65264 | 17.92808 | 111 ft | 2 kts | 152° |
| 2026-05-07 10:56 | 59.65265 | 17.92807 | 111 ft | 0 kts | 152° |
| 2026-05-07 11:00 | 59.65264 | 17.92808 | 112 ft | 1 kts | 152° |
| 2026-05-07 11:00 | 59.65245 | 17.92828 | 111 ft | 4 kts | 152° |
| 2026-05-07 11:00 | 59.65227 | 17.92809 | 112 ft | 3 kts | 239° |
| 2026-05-07 11:00 | 59.65233 | 17.92744 | 110 ft | 6 kts | 287° |
| 2026-05-07 11:01 | 59.65248 | 17.92652 | 112 ft | 8 kts | 289° |
| 2026-05-07 11:01 | 59.65269 | 17.92537 | 112 ft | 9 kts | 289° |
| 2026-05-07 11:01 | 59.65292 | 17.92402 | 109 ft | 12 kts | 289° |
| 2026-05-07 11:01 | 59.65343 | 17.92272 | 105 ft | 12 kts | 353° |
| 2026-05-07 11:02 | 59.65426 | 17.92297 | 104 ft | 13 kts | 9° |
| 2026-05-07 11:02 | 59.65515 | 17.92329 | 105 ft | 13 kts | 10° |
| 2026-05-07 11:02 | 59.65610 | 17.92365 | 105 ft | 14 kts | 10° |
| 2026-05-07 11:02 | 59.65713 | 17.92402 | 105 ft | 15 kts | 10° |
| 2026-05-07 11:03 | 59.65820 | 17.92440 | 106 ft | 16 kts | 10° |
| 2026-05-07 11:03 | 59.65924 | 17.92479 | 108 ft | 15 kts | 11° |
| 2026-05-07 11:03 | 59.66026 | 17.92517 | 110 ft | 15 kts | 11° |
| 2026-05-07 11:03 | 59.66125 | 17.92552 | 112 ft | 15 kts | 9° |
| 2026-05-07 11:04 | 59.66244 | 17.92594 | 115 ft | 19 kts | 10° |
| 2026-05-07 11:04 | 59.66373 | 17.92641 | 120 ft | 18 kts | 10° |
| 2026-05-07 11:04 | 59.66489 | 17.92640 | 119 ft | 17 kts | 344° |
| 2026-05-07 11:04 | 59.66582 | 17.92570 | 122 ft | 14 kts | 338° |
| 2026-05-07 11:05 | 59.66623 | 17.92420 | 124 ft | 13 kts | 276° |
| 2026-05-07 11:05 | 59.66579 | 17.92353 | 123 ft | 1 kts | 187° |
| 2026-05-07 11:05 | 59.66508 | 17.92332 | 121 ft | 37 kts | 189° |
| 2026-05-07 11:05 | 59.66001 | 17.92146 | 115 ft | 109 kts | 191° |
| 2026-05-07 11:06 | 59.65060 | 17.91798 | 106 ft | 164 kts | 191° |
| 2026-05-07 11:06 | 59.63917 | 17.91373 | 484 ft | 175 kts | 191° |
| 2026-05-07 11:06 | 59.62742 | 17.90948 | 1111 ft | 173 kts | 189° |
| 2026-05-07 11:06 | 59.61549 | 17.90376 | 1588 ft | 187 kts | 204° |
| 2026-05-07 11:07 | 59.60572 | 17.88476 | 1810 ft | 213 kts | 233° |
| 2026-05-07 11:07 | 59.59754 | 17.85921 | 2286 ft | 222 kts | 238° |
| 2026-05-07 11:07 | 59.59014 | 17.83364 | 2970 ft | 220 kts | 240° |
| 2026-05-07 11:07 | 59.58274 | 17.80705 | 3577 ft | 224 kts | 242° |
| 2026-05-07 11:08 | 59.57551 | 17.77819 | 3871 ft | 246 kts | 244° |
| 2026-05-07 11:08 | 59.56711 | 17.74797 | 4554 ft | 255 kts | 231° |
| 2026-05-07 11:08 | 59.55332 | 17.72586 | 5285 ft | 260 kts | 207° |
| 2026-05-07 11:08 | 59.53683 | 17.71071 | 6053 ft | 263 kts | 207° |
| 2026-05-07 11:09 | 59.52054 | 17.69490 | 6805 ft | 266 kts | 208° |
| 2026-05-07 11:09 | 59.50396 | 17.67823 | 7561 ft | 269 kts | 209° |
| 2026-05-07 11:09 | 59.48727 | 17.66132 | 8344 ft | 271 kts | 210° |
| 2026-05-07 11:09 | 59.47042 | 17.64434 | 9136 ft | 273 kts | 210° |
| 2026-05-07 11:10 | 59.45339 | 17.62736 | 9904 ft | 276 kts | 210° |
| 2026-05-07 11:10 | 59.43600 | 17.61010 | 10381 ft | 289 kts | 210° |
| 2026-05-07 11:10 | 59.41737 | 17.59160 | 10525 ft | 311 kts | 210° |
| 2026-05-07 11:10 | 59.39745 | 17.57190 | 10750 ft | 328 kts | 210° |
| 2026-05-07 11:11 | 59.37679 | 17.55169 | 11292 ft | 334 kts | 210° |
| 2026-05-07 11:11 | 59.35586 | 17.53141 | 11933 ft | 337 kts | 210° |
| 2026-05-07 11:11 | 59.33504 | 17.51131 | 12585 ft | 339 kts | 210° |
| 2026-05-07 11:11 | 59.31380 | 17.49079 | 13246 ft | 341 kts | 210° |
| 2026-05-07 11:12 | 59.29243 | 17.47009 | 13894 ft | 344 kts | 211° |
| 2026-05-07 11:12 | 59.27089 | 17.44922 | 14419 ft | 347 kts | 210° |
| 2026-05-07 11:12 | 59.24915 | 17.42816 | 14965 ft | 350 kts | 210° |
| 2026-05-07 11:12 | 59.22727 | 17.40692 | 15539 ft | 353 kts | 210° |
| 2026-05-07 11:13 | 59.20523 | 17.38556 | 16096 ft | 355 kts | 211° |
| 2026-05-07 11:13 | 59.18302 | 17.36405 | 16660 ft | 357 kts | 211° |
| 2026-05-07 11:13 | 59.16096 | 17.34270 | 17204 ft | 360 kts | 211° |
| 2026-05-07 11:13 | 59.13846 | 17.32099 | 17771 ft | 362 kts | 211° |
| 2026-05-07 11:14 | 59.11577 | 17.29919 | 18319 ft | 365 kts | 211° |
| 2026-05-07 11:14 | 59.09292 | 17.27731 | 18790 ft | 367 kts | 211° |
| 2026-05-07 11:14 | 59.07066 | 17.25318 | 19235 ft | 366 kts | 218° |
| 2026-05-07 11:14 | 59.05076 | 17.22266 | 19700 ft | 365 kts | 224° |
| 2026-05-07 11:15 | 59.03125 | 17.19093 | 20170 ft | 367 kts | 224° |
| 2026-05-07 11:15 | 59.01159 | 17.15905 | 20579 ft | 370 kts | 223° |
| 2026-05-07 11:15 | 58.99170 | 17.12698 | 21012 ft | 373 kts | 223° |
| 2026-05-07 11:15 | 58.97168 | 17.09487 | 21446 ft | 375 kts | 223° |
| 2026-05-07 11:16 | 58.95183 | 17.06304 | 21879 ft | 377 kts | 223° |
| 2026-05-07 11:16 | 58.93162 | 17.03058 | 22331 ft | 378 kts | 224° |
| 2026-05-07 11:16 | 58.91129 | 16.99800 | 22774 ft | 380 kts | 223° |
| 2026-05-07 11:16 | 58.89082 | 16.96528 | 23218 ft | 382 kts | 224° |
| 2026-05-07 11:17 | 58.87025 | 16.93249 | 23639 ft | 384 kts | 224° |
| 2026-05-07 11:17 | 58.84955 | 16.89955 | 24001 ft | 386 kts | 224° |
| 2026-05-07 11:17 | 58.82875 | 16.86645 | 24354 ft | 388 kts | 224° |
| 2026-05-07 11:17 | 58.80788 | 16.83323 | 24707 ft | 390 kts | 224° |
| 2026-05-07 11:18 | 58.78715 | 16.80036 | 25027 ft | 392 kts | 223° |
| 2026-05-07 11:18 | 58.76602 | 16.76695 | 25356 ft | 394 kts | 223° |
| 2026-05-07 11:18 | 58.74475 | 16.73339 | 25684 ft | 396 kts | 223° |
| 2026-05-07 11:18 | 58.72335 | 16.69969 | 26012 ft | 398 kts | 223° |
| 2026-05-07 11:19 | 58.70186 | 16.66579 | 26346 ft | 400 kts | 223° |
| 2026-05-07 11:19 | 58.68028 | 16.63179 | 26680 ft | 402 kts | 223° |
| 2026-05-07 11:19 | 58.65856 | 16.59765 | 27001 ft | 404 kts | 223° |
| 2026-05-07 11:19 | 58.63677 | 16.56341 | 27327 ft | 406 kts | 223° |
| 2026-05-07 11:20 | 58.61484 | 16.52900 | 27645 ft | 408 kts | 223° |
| 2026-05-07 11:20 | 58.59308 | 16.49494 | 27955 ft | 410 kts | 223° |
| 2026-05-07 11:20 | 58.57091 | 16.46034 | 28230 ft | 413 kts | 223° |
| 2026-05-07 11:20 | 58.54850 | 16.42557 | 28429 ft | 416 kts | 224° |
| 2026-05-07 11:21 | 58.52593 | 16.39063 | 28666 ft | 419 kts | 223° |
| 2026-05-07 11:21 | 58.50318 | 16.35535 | 28934 ft | 422 kts | 223° |
| 2026-05-07 11:21 | 58.48037 | 16.31989 | 29197 ft | 424 kts | 223° |
| 2026-05-07 11:21 | 58.45742 | 16.28432 | 29461 ft | 426 kts | 223° |
| 2026-05-07 11:22 | 58.43436 | 16.24871 | 29723 ft | 428 kts | 223° |
| 2026-05-07 11:22 | 58.41111 | 16.21299 | 29968 ft | 429 kts | 223° |
| 2026-05-07 11:22 | 58.38813 | 16.17772 | 30206 ft | 430 kts | 223° |
| 2026-05-07 11:22 | 58.36484 | 16.14204 | 30481 ft | 430 kts | 223° |
| 2026-05-07 11:23 | 58.34155 | 16.10632 | 30746 ft | 429 kts | 223° |
| 2026-05-07 11:23 | 58.31829 | 16.07067 | 31007 ft | 429 kts | 223° |
| 2026-05-07 11:23 | 58.29506 | 16.03513 | 31217 ft | 429 kts | 223° |
| 2026-05-07 11:23 | 58.27173 | 15.99942 | 31418 ft | 431 kts | 223° |
| 2026-05-07 11:24 | 58.24838 | 15.96370 | 31649 ft | 431 kts | 223° |
| 2026-05-07 11:24 | 58.22501 | 15.92807 | 31903 ft | 431 kts | 223° |
| 2026-05-07 11:24 | 58.20188 | 15.89305 | 32158 ft | 431 kts | 222° |
| 2026-05-07 11:24 | 58.17815 | 15.85721 | 32418 ft | 431 kts | 222° |
| 2026-05-07 11:25 | 58.15505 | 15.82229 | 32677 ft | 430 kts | 222° |
| 2026-05-07 11:25 | 58.13170 | 15.78697 | 32929 ft | 430 kts | 222° |
| 2026-05-07 11:25 | 58.10830 | 15.75174 | 33179 ft | 430 kts | 222° |
| 2026-05-07 11:25 | 58.08489 | 15.71667 | 33441 ft | 429 kts | 222° |
| 2026-05-07 11:26 | 58.06148 | 15.68167 | 33662 ft | 429 kts | 222° |
| 2026-05-07 11:26 | 58.03810 | 15.64671 | 33878 ft | 429 kts | 222° |
| 2026-05-07 11:26 | 58.01466 | 15.61168 | 34098 ft | 429 kts | 221° |
| 2026-05-07 11:26 | 57.99108 | 15.57729 | 34294 ft | 430 kts | 218° |
| 2026-05-07 11:27 | 57.96560 | 15.54880 | 34481 ft | 433 kts | 211° |
| 2026-05-07 11:27 | 57.93881 | 15.52268 | 34660 ft | 433 kts | 211° |
| 2026-05-07 11:27 | 57.91205 | 15.49657 | 34850 ft | 433 kts | 211° |
| 2026-05-07 11:27 | 57.88531 | 15.47039 | 35041 ft | 433 kts | 211° |
| 2026-05-07 11:28 | 57.85864 | 15.44420 | 35225 ft | 432 kts | 211° |
| 2026-05-07 11:28 | 57.83197 | 15.41807 | 35417 ft | 432 kts | 211° |
| 2026-05-07 11:28 | 57.80534 | 15.39208 | 35597 ft | 432 kts | 211° |
| 2026-05-07 11:28 | 57.77866 | 15.36622 | 35783 ft | 432 kts | 211° |
| 2026-05-07 11:29 | 57.75237 | 15.34079 | 35967 ft | 431 kts | 211° |
| 2026-05-07 11:29 | 57.72570 | 15.31498 | 36045 ft | 431 kts | 211° |
| 2026-05-07 11:29 | 57.67244 | 15.26354 | 36056 ft | 431 kts | 211° |
| 2026-05-07 11:30 | 57.61894 | 15.21203 | 36049 ft | 433 kts | 211° |
| 2026-05-07 11:30 | 57.56529 | 15.16058 | 36024 ft | 434 kts | 211° |
| 2026-05-07 11:31 | 57.51157 | 15.10911 | 36049 ft | 434 kts | 211° |
| 2026-05-07 11:31 | 57.45821 | 15.05804 | 36054 ft | 435 kts | 211° |
| 2026-05-07 11:32 | 57.37739 | 14.98111 | 36062 ft | 436 kts | 210° |
| 2026-05-07 11:33 | 57.32340 | 14.93002 | 36069 ft | 436 kts | 210° |
| 2026-05-07 11:33 | 57.26974 | 14.87950 | 36054 ft | 436 kts | 210° |
| 2026-05-07 11:34 | 57.21562 | 14.82868 | 36071 ft | 436 kts | 210° |
| 2026-05-07 11:34 | 57.16150 | 14.77798 | 36076 ft | 437 kts | 210° |
| 2026-05-07 11:35 | 57.10736 | 14.72730 | 36077 ft | 436 kts | 210° |
| 2026-05-07 11:35 | 57.05353 | 14.67714 | 36063 ft | 437 kts | 210° |
| 2026-05-07 11:36 | 56.99930 | 14.62702 | 36069 ft | 437 kts | 209° |
| 2026-05-07 11:36 | 56.94509 | 14.57681 | 36080 ft | 437 kts | 210° |
| 2026-05-07 11:37 | 56.89085 | 14.52673 | 36077 ft | 437 kts | 209° |
| 2026-05-07 11:37 | 56.83695 | 14.47712 | 36080 ft | 437 kts | 209° |
| 2026-05-07 11:38 | 56.78269 | 14.42745 | 36067 ft | 436 kts | 209° |
| 2026-05-07 11:38 | 56.72840 | 14.37796 | 36077 ft | 436 kts | 209° |
| 2026-05-07 11:39 | 56.67408 | 14.32864 | 36083 ft | 436 kts | 209° |
| 2026-05-07 11:39 | 56.61974 | 14.27946 | 36088 ft | 436 kts | 209° |
| 2026-05-07 11:40 | 56.56583 | 14.23062 | 36088 ft | 436 kts | 209° |
| 2026-05-07 11:40 | 56.51150 | 14.18167 | 36093 ft | 436 kts | 208° |
| 2026-05-07 11:41 | 56.45718 | 14.13284 | 36091 ft | 436 kts | 208° |
| 2026-05-07 11:41 | 56.40289 | 14.08413 | 36089 ft | 436 kts | 208° |
| 2026-05-07 11:42 | 56.34890 | 14.03597 | 36088 ft | 436 kts | 208° |
| 2026-05-07 11:42 | 56.29457 | 13.98773 | 36074 ft | 435 kts | 208° |
| 2026-05-07 11:43 | 56.24025 | 13.93963 | 36091 ft | 435 kts | 208° |
| 2026-05-07 11:43 | 56.18595 | 13.89160 | 36085 ft | 435 kts | 208° |
| 2026-05-07 11:44 | 56.13207 | 13.84399 | 36091 ft | 435 kts | 208° |
| 2026-05-07 11:44 | 56.07781 | 13.79627 | 36100 ft | 435 kts | 208° |
| 2026-05-07 11:45 | 56.02344 | 13.74878 | 36089 ft | 434 kts | 208° |
| 2026-05-07 11:45 | 55.96914 | 13.70148 | 36111 ft | 434 kts | 208° |
| 2026-05-07 11:46 | 55.91510 | 13.65457 | 36092 ft | 436 kts | 207° |
| 2026-05-07 11:46 | 55.86048 | 13.60726 | 36087 ft | 437 kts | 208° |
| 2026-05-07 11:47 | 55.80574 | 13.55982 | 36086 ft | 438 kts | 207° |
| 2026-05-07 11:47 | 55.75095 | 13.51256 | 36101 ft | 438 kts | 207° |
| 2026-05-07 11:48 | 55.69655 | 13.46574 | 36109 ft | 438 kts | 207° |
| 2026-05-07 11:48 | 55.64174 | 13.41875 | 36118 ft | 438 kts | 207° |
| 2026-05-07 11:49 | 55.58690 | 13.37195 | 36122 ft | 438 kts | 207° |
| 2026-05-07 11:49 | 55.53205 | 13.32523 | 36105 ft | 437 kts | 207° |
| 2026-05-07 11:50 | 55.47760 | 13.27903 | 36106 ft | 437 kts | 207° |
| 2026-05-07 11:50 | 55.42280 | 13.23276 | 36109 ft | 437 kts | 207° |
| 2026-05-07 11:51 | 55.36804 | 13.18651 | 36112 ft | 437 kts | 207° |
| 2026-05-07 11:51 | 55.31323 | 13.14038 | 36121 ft | 437 kts | 207° |
| 2026-05-07 11:52 | 55.25878 | 13.09473 | 36130 ft | 437 kts | 207° |
| 2026-05-07 11:52 | 55.20392 | 13.04891 | 36131 ft | 437 kts | 207° |
| 2026-05-07 11:53 | 55.14902 | 13.00331 | 36138 ft | 437 kts | 207° |
| 2026-05-07 11:53 | 55.09404 | 12.95764 | 36135 ft | 437 kts | 207° |
| 2026-05-07 11:54 | 55.03907 | 12.91212 | 36129 ft | 437 kts | 207° |
| 2026-05-07 11:54 | 54.98449 | 12.86702 | 36129 ft | 437 kts | 207° |
| 2026-05-07 11:55 | 54.92948 | 12.82177 | 36130 ft | 437 kts | 206° |
| 2026-05-07 11:55 | 54.87442 | 12.77677 | 36133 ft | 437 kts | 206° |
| 2026-05-07 11:56 | 54.81926 | 12.73375 | 36126 ft | 438 kts | 205° |
| 2026-05-07 11:56 | 54.76327 | 12.69200 | 36127 ft | 438 kts | 204° |
| 2026-05-07 11:57 | 54.70730 | 12.65023 | 36134 ft | 438 kts | 205° |
| 2026-05-07 11:57 | 54.65142 | 12.60814 | 36130 ft | 438 kts | 205° |
| 2026-05-07 11:58 | 54.59561 | 12.56599 | 36115 ft | 438 kts | 205° |
| 2026-05-07 11:58 | 54.54008 | 12.52432 | 36117 ft | 438 kts | 204° |
| 2026-05-07 11:59 | 54.48408 | 12.48254 | 36118 ft | 439 kts | 204° |
| 2026-05-07 11:59 | 54.42805 | 12.44081 | 36118 ft | 439 kts | 204° |
| 2026-05-07 12:00 | 54.37199 | 12.39917 | 36113 ft | 439 kts | 204° |
| 2026-05-07 12:00 | 54.31635 | 12.35795 | 36112 ft | 439 kts | 204° |
| 2026-05-07 12:01 | 54.26034 | 12.31648 | 36109 ft | 438 kts | 204° |
| 2026-05-07 12:01 | 54.20434 | 12.27526 | 36121 ft | 438 kts | 204° |
| 2026-05-07 12:02 | 54.14828 | 12.23406 | 36110 ft | 439 kts | 204° |
| 2026-05-07 12:02 | 54.09214 | 12.19300 | 36102 ft | 439 kts | 204° |
| 2026-05-07 12:03 | 54.03636 | 12.15234 | 36097 ft | 439 kts | 204° |
| 2026-05-07 12:03 | 53.98018 | 12.11146 | 36089 ft | 439 kts | 204° |
| 2026-05-07 12:04 | 53.92387 | 12.07070 | 36082 ft | 440 kts | 204° |
| 2026-05-07 12:04 | 53.86765 | 12.02995 | 36084 ft | 440 kts | 204° |
| 2026-05-07 12:05 | 53.81135 | 11.98935 | 36082 ft | 440 kts | 204° |
| 2026-05-07 12:05 | 53.75539 | 11.94922 | 36081 ft | 440 kts | 204° |
| 2026-05-07 12:06 | 53.69906 | 11.90881 | 36078 ft | 440 kts | 204° |
| 2026-05-07 12:06 | 53.64277 | 11.86858 | 36083 ft | 440 kts | 204° |
| 2026-05-07 12:07 | 53.58684 | 11.82865 | 36074 ft | 440 kts | 204° |
| 2026-05-07 12:07 | 53.53047 | 11.78853 | 36070 ft | 440 kts | 203° |
| 2026-05-07 12:08 | 53.47405 | 11.74857 | 36077 ft | 440 kts | 204° |
| 2026-05-07 12:08 | 53.41769 | 11.70868 | 36072 ft | 440 kts | 203° |
| 2026-05-07 12:09 | 53.36165 | 11.66925 | 36064 ft | 440 kts | 203° |
| 2026-05-07 12:09 | 53.30529 | 11.62965 | 36072 ft | 439 kts | 203° |
| 2026-05-07 12:10 | 53.24889 | 11.59010 | 36070 ft | 440 kts | 203° |
| 2026-05-07 12:10 | 53.19244 | 11.55070 | 36073 ft | 440 kts | 203° |
| 2026-05-07 12:11 | 53.13596 | 11.51140 | 36070 ft | 440 kts | 203° |
| 2026-05-07 12:11 | 53.07980 | 11.47236 | 36068 ft | 440 kts | 203° |
| 2026-05-07 12:12 | 53.02318 | 11.43320 | 36071 ft | 441 kts | 203° |
| 2026-05-07 12:12 | 52.96659 | 11.39411 | 36072 ft | 441 kts | 203° |
| 2026-05-07 12:13 | 52.90997 | 11.35514 | 36070 ft | 441 kts | 203° |
| 2026-05-07 12:13 | 52.85371 | 11.31645 | 36075 ft | 441 kts | 203° |
| 2026-05-07 12:14 | 52.79711 | 11.27757 | 36077 ft | 441 kts | 203° |
| 2026-05-07 12:14 | 52.74047 | 11.23884 | 36074 ft | 441 kts | 203° |
| 2026-05-07 12:15 | 52.68382 | 11.20034 | 36072 ft | 440 kts | 203° |
| 2026-05-07 12:15 | 52.62710 | 11.16190 | 36073 ft | 441 kts | 203° |
| 2026-05-07 12:16 | 52.57084 | 11.12376 | 36069 ft | 440 kts | 203° |
| 2026-05-07 12:16 | 52.51419 | 11.08542 | 36067 ft | 440 kts | 203° |
| 2026-05-07 12:17 | 52.45750 | 11.04732 | 36070 ft | 440 kts | 202° |
| 2026-05-07 12:17 | 52.40076 | 11.00925 | 36065 ft | 441 kts | 202° |
| 2026-05-07 12:18 | 52.34423 | 10.97142 | 36065 ft | 442 kts | 202° |
| 2026-05-07 12:18 | 52.28737 | 10.93341 | 36069 ft | 441 kts | 202° |
| 2026-05-07 12:19 | 52.23049 | 10.89556 | 36074 ft | 442 kts | 202° |
| 2026-05-07 12:19 | 52.17358 | 10.85778 | 36069 ft | 442 kts | 202° |
| 2026-05-07 12:20 | 52.11701 | 10.82003 | 36066 ft | 442 kts | 204° |
| 2026-05-07 12:20 | 52.06122 | 10.77790 | 36066 ft | 442 kts | 206° |
| 2026-05-07 12:21 | 52.00608 | 10.73341 | 36067 ft | 442 kts | 207° |
| 2026-05-07 12:21 | 51.95081 | 10.68954 | 36061 ft | 442 kts | 206° |
| 2026-05-07 12:22 | 51.89524 | 10.64658 | 36072 ft | 442 kts | 206° |
| 2026-05-07 12:22 | 51.84006 | 10.60438 | 36061 ft | 442 kts | 206° |
| 2026-05-07 12:23 | 51.78452 | 10.56180 | 36053 ft | 442 kts | 206° |
| 2026-05-07 12:23 | 51.72900 | 10.51911 | 36049 ft | 442 kts | 206° |
| 2026-05-07 12:24 | 51.67336 | 10.47644 | 36058 ft | 443 kts | 206° |
| 2026-05-07 12:24 | 51.61807 | 10.43425 | 36052 ft | 443 kts | 206° |
| 2026-05-07 12:25 | 51.56234 | 10.39196 | 36044 ft | 443 kts | 206° |
| 2026-05-07 12:25 | 51.50654 | 10.34966 | 36041 ft | 444 kts | 206° |
| 2026-05-07 12:26 | 51.45073 | 10.30733 | 36047 ft | 444 kts | 206° |
| 2026-05-07 12:26 | 51.39484 | 10.26524 | 36054 ft | 444 kts | 205° |
| 2026-05-07 12:27 | 51.33806 | 10.22825 | 36052 ft | 445 kts | 194° |
| 2026-05-07 12:27 | 51.27731 | 10.21809 | 35791 ft | 434 kts | 181° |
| 2026-05-07 12:27 | 51.24727 | 10.21749 | 35404 ft | 430 kts | 181° |
| 2026-05-07 12:28 | 51.21744 | 10.21693 | 35016 ft | 429 kts | 181° |
| 2026-05-07 12:28 | 51.18763 | 10.21635 | 34641 ft | 428 kts | 181° |
| 2026-05-07 12:28 | 51.15779 | 10.21576 | 34265 ft | 429 kts | 182° |
| 2026-05-07 12:28 | 51.12793 | 10.21523 | 33871 ft | 429 kts | 181° |
| 2026-05-07 12:29 | 51.09846 | 10.21474 | 33436 ft | 430 kts | 181° |
| 2026-05-07 12:29 | 51.06850 | 10.21424 | 32995 ft | 431 kts | 181° |
| 2026-05-07 12:29 | 51.03847 | 10.21371 | 32561 ft | 431 kts | 180° |
| 2026-05-07 12:29 | 51.00854 | 10.21314 | 32112 ft | 431 kts | 180° |
| 2026-05-07 12:30 | 50.97859 | 10.21255 | 31665 ft | 430 kts | 180° |
| 2026-05-07 12:30 | 50.94868 | 10.21198 | 31228 ft | 430 kts | 180° |
| 2026-05-07 12:30 | 50.91886 | 10.21141 | 30996 ft | 429 kts | 180° |
| 2026-05-07 12:31 | 50.85906 | 10.20867 | 30966 ft | 436 kts | 187° |
| 2026-05-07 12:31 | 50.82922 | 10.19713 | 30564 ft | 446 kts | 201° |
| 2026-05-07 12:31 | 50.80227 | 10.17439 | 30173 ft | 447 kts | 216° |
| 2026-05-07 12:31 | 50.77950 | 10.14123 | 29730 ft | 445 kts | 230° |
| 2026-05-07 12:32 | 50.76260 | 10.10054 | 29263 ft | 444 kts | 243° |
| 2026-05-07 12:32 | 50.74881 | 10.05697 | 28817 ft | 442 kts | 243° |
| 2026-05-07 12:32 | 50.73507 | 10.01375 | 28368 ft | 439 kts | 243° |
| 2026-05-07 12:32 | 50.72136 | 9.97093 | 27933 ft | 437 kts | 243° |
| 2026-05-07 12:33 | 50.69858 | 9.90013 | 27221 ft | 433 kts | 243° |
| 2026-05-07 12:33 | 50.68060 | 9.84437 | 26663 ft | 429 kts | 243° |
| 2026-05-07 12:33 | 50.66713 | 9.80265 | 26249 ft | 425 kts | 243° |
| 2026-05-07 12:34 | 50.65379 | 9.76131 | 25836 ft | 421 kts | 243° |
| 2026-05-07 12:34 | 50.63889 | 9.72183 | 25438 ft | 418 kts | 233° |
| 2026-05-07 12:34 | 50.61969 | 9.68784 | 25045 ft | 414 kts | 222° |
| 2026-05-07 12:34 | 50.59704 | 9.66061 | 24582 ft | 407 kts | 211° |
| 2026-05-07 12:35 | 50.57193 | 9.64094 | 24104 ft | 401 kts | 201° |
| 2026-05-07 12:35 | 50.55477 | 9.63057 | 23788 ft | 398 kts | 201° |
| 2026-05-07 12:35 | 50.52143 | 9.60835 | 23079 ft | 388 kts | 208° |
| 2026-05-07 12:35 | 50.49864 | 9.58620 | 22527 ft | 383 kts | 220° |
| 2026-05-07 12:36 | 50.48027 | 9.55633 | 21997 ft | 379 kts | 234° |
| 2026-05-07 12:36 | 50.46650 | 9.52141 | 21456 ft | 374 kts | 245° |
| 2026-05-07 12:36 | 50.45964 | 9.49667 | 21113 ft | 371 kts | 251° |
| 2026-05-07 12:36 | 50.45207 | 9.45822 | 20585 ft | 368 kts | 255° |
| 2026-05-07 12:37 | 50.44245 | 9.40671 | 19810 ft | 367 kts | 254° |
| 2026-05-07 12:37 | 50.43759 | 9.38141 | 19426 ft | 366 kts | 254° |
| 2026-05-07 12:37 | 50.43019 | 9.34329 | 18879 ft | 364 kts | 254° |
| 2026-05-07 12:37 | 50.42283 | 9.30548 | 18325 ft | 361 kts | 254° |
| 2026-05-07 12:38 | 50.41560 | 9.26817 | 17700 ft | 355 kts | 254° |
| 2026-05-07 12:38 | 50.40833 | 9.23151 | 17086 ft | 350 kts | 253° |
| 2026-05-07 12:38 | 50.39775 | 9.18422 | 16286 ft | 345 kts | 251° |
| 2026-05-07 12:38 | 50.39223 | 9.16091 | 15894 ft | 343 kts | 251° |
| 2026-05-07 12:39 | 50.38388 | 9.12602 | 15311 ft | 342 kts | 251° |
| 2026-05-07 12:39 | 50.37601 | 9.09304 | 14772 ft | 341 kts | 251° |
| 2026-05-07 12:39 | 50.36777 | 9.05828 | 14212 ft | 340 kts | 251° |
| 2026-05-07 12:39 | 50.35967 | 9.02385 | 13641 ft | 335 kts | 251° |
| 2026-05-07 12:40 | 50.35170 | 8.98988 | 13021 ft | 329 kts | 251° |
| 2026-05-07 12:40 | 50.34386 | 8.95648 | 12431 ft | 325 kts | 251° |
| 2026-05-07 12:40 | 50.33610 | 8.92343 | 11822 ft | 322 kts | 251° |
| 2026-05-07 12:40 | 50.32842 | 8.89069 | 11243 ft | 319 kts | 251° |
| 2026-05-07 12:41 | 50.32083 | 8.85824 | 10678 ft | 316 kts | 252° |
| 2026-05-07 12:41 | 50.31260 | 8.82670 | 10105 ft | 314 kts | 242° |
| 2026-05-07 12:41 | 50.29811 | 8.80137 | 9511 ft | 313 kts | 214° |
| 2026-05-07 12:41 | 50.27825 | 8.79022 | 8909 ft | 308 kts | 186° |
| 2026-05-07 12:42 | 50.25722 | 8.79329 | 8313 ft | 304 kts | 163° |
| 2026-05-07 12:42 | 50.23853 | 8.80787 | 7724 ft | 299 kts | 143° |
| 2026-05-07 12:42 | 50.22428 | 8.83097 | 7141 ft | 294 kts | 123° |
| 2026-05-07 12:42 | 50.21597 | 8.85964 | 6576 ft | 289 kts | 102° |
| 2026-05-07 12:43 | 50.21434 | 8.89044 | 5980 ft | 283 kts | 82° |
| 2026-05-07 12:43 | 50.21930 | 8.91970 | 5382 ft | 277 kts | 63° |
| 2026-05-07 12:43 | 50.22857 | 8.94538 | 5037 ft | 267 kts | 58° |
| 2026-05-07 12:43 | 50.23762 | 8.97082 | 4976 ft | 269 kts | 63° |
| 2026-05-07 12:44 | 50.24344 | 8.99857 | 4974 ft | 272 kts | 84° |
| 2026-05-07 12:44 | 50.24090 | 9.02730 | 4978 ft | 274 kts | 112° |
| 2026-05-07 12:44 | 50.22999 | 9.05136 | 4978 ft | 275 kts | 140° |
| 2026-05-07 12:44 | 50.21334 | 9.06563 | 4978 ft | 275 kts | 167° |
| 2026-05-07 12:45 | 50.19455 | 9.06666 | 4980 ft | 270 kts | 195° |
| 2026-05-07 12:45 | 50.17672 | 9.05758 | 4983 ft | 270 kts | 203° |
| 2026-05-07 12:45 | 50.16095 | 9.04236 | 4978 ft | 266 kts | 229° |
| 2026-05-07 12:45 | 50.15171 | 9.01793 | 4987 ft | 262 kts | 254° |
| 2026-05-07 12:46 | 50.14755 | 8.99120 | 4981 ft | 245 kts | 261° |
| 2026-05-07 12:46 | 50.14431 | 8.96603 | 4989 ft | 228 kts | 261° |
| 2026-05-07 12:46 | 50.14125 | 8.94274 | 4993 ft | 214 kts | 259° |
| 2026-05-07 12:46 | 50.13738 | 8.92185 | 4997 ft | 190 kts | 254° |
| 2026-05-07 12:47 | 50.13338 | 8.90407 | 4995 ft | 159 kts | 254° |
| 2026-05-07 12:47 | 50.12981 | 8.88864 | 4992 ft | 149 kts | 253° |
| 2026-05-07 12:47 | 50.12626 | 8.87343 | 4995 ft | 148 kts | 253° |
| 2026-05-07 12:47 | 50.12274 | 8.85836 | 4963 ft | 149 kts | 253° |
| 2026-05-07 12:48 | 50.11918 | 8.84322 | 4815 ft | 148 kts | 252° |
| 2026-05-07 12:48 | 50.11564 | 8.82819 | 4629 ft | 147 kts | 252° |
| 2026-05-07 12:48 | 50.11212 | 8.81324 | 4424 ft | 147 kts | 252° |
| 2026-05-07 12:48 | 50.10860 | 8.79831 | 4208 ft | 146 kts | 253° |
| 2026-05-07 12:49 | 50.10509 | 8.78344 | 4001 ft | 146 kts | 253° |
| 2026-05-07 12:49 | 50.10149 | 8.76814 | 3794 ft | 153 kts | 252° |
| 2026-05-07 12:49 | 50.09781 | 8.75265 | 3563 ft | 155 kts | 252° |
| 2026-05-07 12:49 | 50.09409 | 8.73688 | 3346 ft | 155 kts | 253° |
| 2026-05-07 12:50 | 50.09038 | 8.72120 | 3118 ft | 154 kts | 252° |
| 2026-05-07 12:50 | 50.08667 | 8.70557 | 2894 ft | 153 kts | 253° |
| 2026-05-07 12:50 | 50.08299 | 8.69005 | 2672 ft | 153 kts | 252° |
| 2026-05-07 12:50 | 50.07954 | 8.67543 | 2470 ft | 153 kts | 253° |
| 2026-05-07 12:51 | 50.07588 | 8.66002 | 2245 ft | 152 kts | 252° |
| 2026-05-07 12:51 | 50.07217 | 8.64442 | 2021 ft | 152 kts | 252° |
| 2026-05-07 12:51 | 50.06855 | 8.62918 | 1794 ft | 148 kts | 252° |
| 2026-05-07 12:51 | 50.06504 | 8.61443 | 1582 ft | 144 kts | 252° |
| 2026-05-07 12:52 | 50.06175 | 8.60059 | 1395 ft | 142 kts | 252° |
| 2026-05-07 12:52 | 50.05830 | 8.58615 | 1175 ft | 141 kts | 252° |
| 2026-05-07 12:52 | 50.05496 | 8.57207 | 966 ft | 138 kts | 252° |
| 2026-05-07 12:52 | 50.05175 | 8.55824 | 746 ft | 136 kts | 251° |
| 2026-05-07 12:53 | 50.04856 | 8.54481 | 582 ft | 137 kts | 248° |
| 2026-05-07 12:53 | 50.04518 | 8.53096 | 380 ft | 135 kts | 250° |
| 2026-05-07 12:53 | 50.04213 | 8.51824 | 335 ft | 102 kts | 248° |
| 2026-05-07 12:53 | 50.04070 | 8.51237 | 328 ft | 15 kts | 247° |
| 2026-05-07 12:54 | 50.04012 | 8.51083 | 326 ft | 18 kts | 234° |
| 2026-05-07 12:54 | 50.03922 | 8.50933 | 325 ft | 20 kts | 224° |
| 2026-05-07 12:54 | 50.03838 | 8.50845 | 329 ft | 10 kts | 198° |
| 2026-05-07 12:54 | 50.03790 | 8.50865 | 330 ft | 6 kts | 137° |
| 2026-05-07 12:55 | 50.03774 | 8.50906 | 333 ft | 1 kts | 104° |
| 2026-05-07 12:55 | 50.03789 | 8.50960 | 333 ft | 10 kts | 65° |
| 2026-05-07 12:55 | 50.03815 | 8.51064 | 331 ft | 11 kts | 70° |
| 2026-05-07 12:55 | 50.03846 | 8.51192 | 333 ft | 14 kts | 69° |
| 2026-05-07 12:56 | 50.03882 | 8.51346 | 331 ft | 17 kts | 70° |
| 2026-05-07 12:56 | 50.03927 | 8.51534 | 333 ft | 19 kts | 69° |
| 2026-05-07 12:56 | 50.03972 | 8.51723 | 334 ft | 19 kts | 69° |
| 2026-05-07 12:56 | 50.04016 | 8.51906 | 335 ft | 17 kts | 70° |
| 2026-05-07 12:57 | 50.04055 | 8.52070 | 338 ft | 16 kts | 70° |
| 2026-05-07 12:57 | 50.04094 | 8.52231 | 349 ft | 16 kts | 70° |
| 2026-05-07 12:57 | 50.04132 | 8.52392 | 351 ft | 16 kts | 70° |
| 2026-05-07 12:57 | 50.04170 | 8.52551 | 356 ft | 16 kts | 69° |
| 2026-05-07 12:58 | 50.04208 | 8.52708 | 354 ft | 15 kts | 70° |
| 2026-05-07 12:58 | 50.04244 | 8.52863 | 358 ft | 16 kts | 70° |
| 2026-05-07 12:58 | 50.04283 | 8.53022 | 356 ft | 16 kts | 69° |
| 2026-05-07 12:58 | 50.04320 | 8.53175 | 366 ft | 13 kts | 69° |
| 2026-05-07 12:59 | 50.04353 | 8.53315 | 366 ft | 14 kts | 70° |
| 2026-05-07 12:59 | 50.04384 | 8.53443 | 373 ft | 11 kts | 70° |
| 2026-05-07 12:59 | 50.04398 | 8.53556 | 375 ft | 13 kts | 84° |
| 2026-05-07 12:59 | 50.04409 | 8.53720 | 375 ft | 16 kts | 84° |
| 2026-05-07 13:00 | 50.04420 | 8.53908 | 375 ft | 18 kts | 84° |
| 2026-05-07 13:00 | 50.04434 | 8.54100 | 375 ft | 17 kts | 84° |
| 2026-05-07 13:00 | 50.04446 | 8.54283 | 375 ft | 18 kts | 84° |
| 2026-05-07 13:00 | 50.04448 | 8.54496 | 370 ft | 22 kts | 100° |
| 2026-05-07 13:01 | 50.04380 | 8.54694 | 362 ft | 22 kts | 134° |
| 2026-05-07 13:01 | 50.04300 | 8.54779 | 357 ft | 15 kts | 159° |
| 2026-05-07 13:01 | 50.04190 | 8.54841 | 356 ft | 17 kts | 160° |
| 2026-05-07 13:01 | 50.04112 | 8.54885 | 354 ft | 10 kts | 160° |
| 2026-05-07 13:02 | 50.04082 | 8.54903 | 353 ft | 0 kts | 160° |
| 2026-05-07 13:02 | 50.04075 | 8.54906 | 351 ft | 3 kts | 160° |
| 2026-05-07 13:02 | 50.04061 | 8.54915 | 356 ft | 0 kts | 160° |
| 2026-05-07 13:03 | 50.04046 | 8.54924 | 353 ft | 3 kts | 160° |
| 2026-05-07 13:03 | 50.04018 | 8.54940 | 354 ft | 5 kts | 159° |
| 2026-05-07 13:04 | 50.03971 | 8.54968 | 356 ft | 10 kts | 159° |
| 2026-05-07 13:04 | 50.03892 | 8.55013 | 357 ft | 14 kts | 160° |
| 2026-05-07 13:04 | 50.03848 | 8.55113 | 350 ft | 13 kts | 78° |
| 2026-05-07 13:04 | 50.03882 | 8.55250 | 355 ft | 14 kts | 69° |
| 2026-05-07 13:05 | 50.03918 | 8.55402 | 352 ft | 16 kts | 70° |
| 2026-05-07 13:05 | 50.03957 | 8.55569 | 354 ft | 18 kts | 70° |
| 2026-05-07 13:05 | 50.04002 | 8.55753 | 355 ft | 19 kts | 69° |
| 2026-05-07 13:05 | 50.04047 | 8.55946 | 355 ft | 19 kts | 70° |
| 2026-05-07 13:06 | 50.04094 | 8.56140 | 355 ft | 18 kts | 69° |
| 2026-05-07 13:06 | 50.04137 | 8.56326 | 354 ft | 19 kts | 69° |
| 2026-05-07 13:06 | 50.04183 | 8.56511 | 362 ft | 18 kts | 69° |
| 2026-05-07 13:06 | 50.04227 | 8.56694 | 364 ft | 18 kts | 70° |
| 2026-05-07 13:07 | 50.04269 | 8.56875 | 363 ft | 18 kts | 70° |
| 2026-05-07 13:07 | 50.04315 | 8.57065 | 363 ft | 19 kts | 69° |
| 2026-05-07 13:07 | 50.04362 | 8.57261 | 363 ft | 20 kts | 69° |
| 2026-05-07 13:07 | 50.04409 | 8.57461 | 361 ft | 21 kts | 70° |
| 2026-05-07 13:08 | 50.04459 | 8.57668 | 367 ft | 19 kts | 69° |
| 2026-05-07 13:08 | 50.04508 | 8.57866 | 368 ft | 21 kts | 69° |
| 2026-05-07 13:08 | 50.04556 | 8.58074 | 367 ft | 20 kts | 69° |
| 2026-05-07 13:08 | 50.04597 | 8.58246 | 368 ft | 15 kts | 70° |
| 2026-05-07 13:09 | 50.04632 | 8.58395 | 371 ft | 14 kts | 70° |
| 2026-05-07 13:09 | 50.04669 | 8.58549 | 369 ft | 16 kts | 70° |
| 2026-05-07 13:09 | 50.04711 | 8.58717 | 369 ft | 18 kts | 66° |
| 2026-05-07 13:09 | 50.04759 | 8.58900 | 374 ft | 19 kts | 69° |
| 2026-05-07 13:10 | 50.04806 | 8.59100 | 371 ft | 20 kts | 69° |
| 2026-05-07 13:10 | 50.04841 | 8.59246 | 369 ft | 11 kts | 70° |
| 2026-05-07 13:10 | 50.04853 | 8.59285 | 370 ft | 2 kts | 49° |
| 2026-05-07 13:10 | 50.04879 | 8.59284 | 367 ft | 6 kts | 343° |
| 2026-05-07 13:11 | 50.04923 | 8.59259 | 368 ft | 3 kts | 339° |
| 2026-05-07 13:11 | 50.04930 | 8.59255 | 366 ft | 0 kts | 340° |